Time;durP1;ratioP1;P1;durP2;ratioP2;P2;SDS_P1;SDS_P2;PMS_P1;PMS_P2;Temp;Humidity;BMP_temperature;BMP_pressure;BME280_temperature;BME280_humidity;BME280_pressure;Samples;Min_cycle;Max_cycle;Signal;HPM_P1;HPM_P2
2023/04/06 00:01:37;;;;;;;1.50;1.00;;;;;;;19.38;42.51;97159.50;10376801;28;20461;-74
2023/04/06 00:06:56;;;;;;;1.50;1.20;;;;;;;19.38;42.51;97158.72;10376721;28;20442;-73
2023/04/06 00:12:15;;;;;;;1.25;1.15;;;;;;;19.35;42.52;97157.47;10391306;28;20037;-73
2023/04/06 00:17:35;;;;;;;1.20;1.10;;;;;;;19.35;42.57;97165.56;10376283;28;20046;-73
2023/04/06 00:22:55;;;;;;;1.85;1.00;;;;;;;19.34;42.32;97155.84;10390650;28;20045;-73
2023/04/06 00:28:14;;;;;;;1.30;1.20;;;;;;;19.32;42.59;97144.56;10383694;28;20414;-73
2023/04/06 00:33:34;;;;;;;3.20;1.20;;;;;;;19.32;42.47;97144.56;10375507;28;20052;-73
2023/04/06 00:38:54;;;;;;;1.83;1.30;;;;;;;19.30;42.37;97133.28;10375400;28;20541;-73
2023/04/06 00:44:13;;;;;;;2.95;1.42;;;;;;;19.28;42.38;97136.28;10375230;28;20480;-74
2023/04/06 00:49:33;;;;;;;1.30;1.10;;;;;;;19.27;42.32;97136.63;10375089;28;20056;-73
2023/04/06 00:54:52;;;;;;;1.30;1.20;;;;;;;19.26;42.28;97132.31;10350716;28;20050;-73
2023/04/06 01:00:14;;;;;;;1.30;1.10;;;;;;;19.25;42.13;97125.31;10307574;28;20042;-73
2023/04/06 01:05:40;;;;;;;1.30;1.13;;;;;;;19.25;42.19;97138.81;10307433;28;20042;-73
2023/04/06 01:11:02;;;;;;;1.15;1.05;;;;;;;19.23;42.22;97130.22;10320978;28;20399;-73
2023/04/06 01:16:23;;;;;;;1.65;1.38;;;;;;;19.20;42.25;97123.56;10320201;28;20042;-73
2023/04/06 01:21:58;;;;;;;2.00;1.05;;;;;;;19.20;42.08;97125.47;10321654;28;20043;-73
2023/04/06 01:27:26;;;;;;;1.38;1.20;;;;;;;19.18;41.94;97128.47;10343280;28;20409;-73
2023/04/06 01:32:54;;;;;;;4.00;1.25;;;;;;;19.16;41.95;97120.69;10334942;28;20042;-73
2023/04/06 01:38:43;;;;;;;;;;;;;;;19.13;42.03;97113.22;10317842;28;20109;-73
2023/04/06 01:44:03;;;;;;;2.25;1.10;;;;;;;19.12;41.95;97111.63;10332569;28;19922;-73
2023/04/06 01:49:24;;;;;;;1.23;1.10;;;;;;;19.11;41.95;97110.03;10332740;28;20046;-73
2023/04/06 01:54:47;;;;;;;1.52;1.20;;;;;;;19.10;41.87;97111.16;10332843;28;20042;-73
2023/04/06 02:00:10;;;;;;;1.20;1.10;;;;;;;19.08;41.84;97099.84;10332280;28;20050;-73
2023/04/06 02:05:37;;;;;;;2.17;1.25;;;;;;;19.08;42.00;97113.38;10332936;28;20403;-73
2023/04/06 02:11:00;;;;;;;1.92;1.20;;;;;;;19.07;41.79;97109.09;10318643;28;20108;-73
2023/04/06 02:16:26;;;;;;;1.15;0.90;;;;;;;19.04;41.87;97107.00;10319248;28;20049;-73
2023/04/06 02:21:46;;;;;;;1.63;1.33;;;;;;;19.03;41.81;97100.00;10346600;28;20049;-73
2023/04/06 02:27:05;;;;;;;1.75;1.30;;;;;;;19.01;41.99;97099.50;10314415;28;20055;-73
2023/04/06 02:32:25;;;;;;;1.63;1.20;;;;;;;19.01;42.00;97102.22;10331681;28;20545;-73
2023/04/06 02:37:44;;;;;;;1.65;1.20;;;;;;;19.00;41.61;97106.03;10346060;28;20042;-73
2023/04/06 02:43:04;;;;;;;1.30;1.20;;;;;;;18.99;41.75;97103.63;10346354;28;20045;-73
2023/04/06 02:48:25;;;;;;;1.33;1.10;;;;;;;18.97;41.95;97106.66;10317783;28;20046;-73
2023/04/06 02:53:46;;;;;;;1.20;1.10;;;;;;;18.97;41.67;97106.66;10332389;28;20055;-73
2023/04/06 02:59:07;;;;;;;1.60;1.20;;;;;;;18.94;41.74;97102.69;10323197;28;20049;-73
2023/04/06 03:04:27;;;;;;;1.40;1.30;;;;;;;18.93;41.73;97106.50;10325057;28;20049;-73
2023/04/06 03:09:48;;;;;;;1.30;1.20;;;;;;;18.92;41.76;97106.81;10325047;28;20042;-73
2023/04/06 03:15:08;;;;;;;1.55;1.25;;;;;;;18.90;41.71;97103.63;10324863;28;20046;-73
2023/04/06 03:20:29;;;;;;;1.60;1.20;;;;;;;18.90;41.74;97106.31;10324611;28;20396;-73
2023/04/06 03:25:49;;;;;;;1.50;1.20;;;;;;;18.89;41.77;97107.41;10337528;28;20050;-73
2023/04/06 03:31:12;;;;;;;1.20;1.10;;;;;;;18.86;41.77;97106.16;10337608;28;20052;-73
2023/04/06 03:36:44;;;;;;;1.95;1.30;;;;;;;18.87;41.60;97112.34;10325390;28;20407;-73
2023/04/06 03:42:04;;;;;;;1.77;1.27;;;;;;;18.83;41.57;97112.16;10337032;28;20046;-73
2023/04/06 03:47:29;;;;;;;1.40;1.30;;;;;;;18.83;41.66;97122.16;10338353;28;20392;-73
2023/04/06 03:52:53;;;;;;;1.55;1.33;;;;;;;18.81;41.67;97121.69;10323248;28;20423;-73
2023/04/06 03:58:13;;;;;;;1.60;1.40;;;;;;;18.79;41.44;97121.97;10323002;28;20049;-73
2023/04/06 04:03:32;;;;;;;1.63;1.23;;;;;;;18.77;41.64;97130.34;10336169;28;20046;-73
2023/04/06 04:08:51;;;;;;;1.77;1.20;;;;;;;18.76;41.72;97133.38;10335571;28;20054;-73
2023/04/06 04:14:11;;;;;;;1.63;1.17;;;;;;;18.75;41.51;97126.38;10322588;28;20506;-73
2023/04/06 04:19:30;;;;;;;1.63;1.52;;;;;;;18.73;41.52;97134.78;10322078;28;20042;-73
2023/04/06 04:24:50;;;;;;;1.50;1.38;;;;;;;18.73;41.41;97129.38;10322149;28;20042;-73
2023/04/06 04:30:10;;;;;;;1.65;1.25;;;;;;;18.73;41.37;97132.09;10309773;28;20054;-73
2023/04/06 04:35:30;;;;;;;1.38;1.27;;;;;;;18.72;41.43;97137.81;10321595;28;20042;-73
2023/04/06 04:40:50;;;;;;;1.33;1.20;;;;;;;18.70;41.51;97143.53;10321184;28;20092;-73
2023/04/06 04:46:10;;;;;;;1.50;1.40;;;;;;;18.70;41.53;97140.00;10320957;28;20105;-73
2023/04/06 04:51:33;;;;;;;1.40;1.30;;;;;;;18.69;41.62;97135.72;10320557;28;20043;-73
2023/04/06 04:57:03;;;;;;;1.60;1.27;;;;;;;18.70;41.50;97145.41;10352374;28;20037;-73
2023/04/06 05:02:41;;;;;;;4.20;3.60;;;;;;;18.70;40.17;97151.63;10325701;28;20042;-72
2023/04/06 05:08:11;;;;;;;2.10;1.90;;;;;;;18.71;41.35;97147.00;10319138;28;20419;-73
2023/04/06 05:13:40;;;;;;;2.47;2.10;;;;;;;18.72;41.19;97149.41;10361153;28;20045;-73
2023/04/06 05:19:05;;;;;;;2.70;1.98;;;;;;;18.74;41.55;97139.09;10320193;28;20406;-73
2023/04/06 05:24:33;;;;;;;3.03;1.92;;;;;;;18.76;41.73;97153.06;10320521;28;20501;-73
2023/04/06 05:29:52;;;;;;;5.40;2.00;;;;;;;18.78;41.97;97152.78;10281941;28;20062;-73
2023/04/06 05:35:12;;;;;;;2.42;2.05;;;;;;;18.82;41.74;97158.34;10311865;28;20039;-72
2023/04/06 05:40:34;;;;;;;1.98;1.77;;;;;;;18.84;41.84;97153.47;10330200;28;20077;-72
2023/04/06 05:45:54;;;;;;;2.08;1.88;;;;;;;18.88;41.65;97165.22;10347266;28;20042;-72
2023/04/06 05:51:13;;;;;;;3.45;2.20;;;;;;;18.90;41.72;97165.72;10308422;28;20546;-72
2023/04/06 05:56:39;;;;;;;1.98;1.77;;;;;;;18.93;41.73;97159.69;10301795;28;20043;-72
2023/04/06 06:02:01;;;;;;;2.22;1.90;;;;;;;18.96;41.33;97159.06;10274878;28;20400;-72
2023/04/06 06:07:23;;;;;;;2.40;2.10;;;;;;;18.99;41.74;97152.25;10288477;28;20042;-77
2023/04/06 06:12:50;;;;;;;3.10;2.40;;;;;;;19.01;41.36;97161.63;10288848;28;20047;-77
2023/04/06 06:18:11;;;;;;;2.53;2.10;;;;;;;19.04;41.26;97161.00;10287962;28;20050;-77
2023/04/06 06:23:31;;;;;;;2.25;2.05;;;;;;;19.07;41.14;97165.78;10306491;28;20325;-77
2023/04/06 06:28:52;;;;;;;2.97;2.20;;;;;;;19.12;41.28;97167.53;10303141;28;20058;-77
2023/04/06 06:34:12;;;;;;;2.30;2.10;;;;;;;19.15;41.01;97173.13;10324115;28;20066;-77
2023/04/06 06:39:33;;;;;;;3.65;2.17;;;;;;;19.19;41.09;97161.69;10325883;28;20042;-76
2023/04/06 06:44:54;;;;;;;2.42;2.22;;;;;;;19.23;40.92;97168.03;10325872;28;20046;-77
2023/04/06 06:50:13;;;;;;;2.50;2.00;;;;;;;19.26;41.08;97175.53;10311869;28;20042;-77
2023/04/06 06:55:33;;;;;;;2.33;2.13;;;;;;;19.30;40.83;97171.09;10339046;28;20039;-77
2023/04/06 07:00:57;;;;;;;2.60;1.90;;;;;;;19.32;40.81;97169.66;10338526;28;20046;-77
2023/04/06 07:06:17;;;;;;;2.30;2.05;;;;;;;19.36;40.97;97173.34;10338596;28;20042;-77
2023/04/06 07:11:36;;;;;;;2.08;1.88;;;;;;;19.42;40.97;97175.91;10338233;28;20050;-76
2023/04/06 07:16:55;;;;;;;3.60;2.10;;;;;;;19.45;40.79;97162.56;10324715;28;20410;-76
2023/04/06 07:22:15;;;;;;;2.28;1.95;;;;;;;19.50;40.86;97161.59;10352647;28;20049;-77
2023/04/06 07:27:35;;;;;;;3.05;2.35;;;;;;;19.52;40.75;97162.91;10332643;28;20054;-77
2023/04/06 07:32:56;;;;;;;2.75;2.20;;;;;;;19.55;40.78;97162.25;10310559;28;20507;-77
2023/04/06 07:38:17;;;;;;;2.28;2.03;;;;;;;19.60;40.76;97160.50;10323673;28;20038;-77
2023/04/06 07:43:38;;;;;;;2.97;2.20;;;;;;;19.63;40.66;97166.09;10322801;28;20042;-76
2023/04/06 07:48:59;;;;;;;2.40;1.90;;;;;;;19.67;40.49;97169.75;10323388;28;20407;-76
2023/04/06 07:54:21;;;;;;;2.53;2.10;;;;;;;19.70;40.90;97171.84;10309848;28;20058;-76
2023/04/06 07:59:40;;;;;;;2.38;1.90;;;;;;;19.75;40.93;97170.91;10309140;28;20039;-72
2023/04/06 08:04:59;;;;;;;2.10;1.88;;;;;;;19.78;40.92;97172.19;10336162;28;20105;-72
2023/04/06 08:10:19;;;;;;;2.05;1.75;;;;;;;19.81;41.04;97166.16;10336005;28;20045;-72
2023/04/06 08:15:39;;;;;;;3.83;2.30;;;;;;;19.84;41.18;97177.13;10350572;28;20034;-72
2023/04/06 08:20:58;;;;;;;3.15;2.03;;;;;;;19.88;41.05;97172.69;10350376;28;20066;-72
2023/04/06 08:26:17;;;;;;;2.55;1.90;;;;;;;19.91;40.97;97169.31;10348541;28;20455;-72
2023/04/06 08:31:37;;;;;;;3.50;1.70;;;;;;;19.95;41.28;97167.59;10350047;28;20043;-73
2023/04/06 08:36:56;;;;;;;4.00;2.00;;;;;;;19.97;41.42;97161.84;10321205;28;20104;-72
2023/04/06 08:42:26;;;;;;;2.45;1.92;;;;;;;19.99;41.37;97159.63;10321431;28;20045;-73
2023/04/06 08:47:46;;;;;;;3.17;1.70;;;;;;;20.02;41.33;97163.63;10349288;28;20064;-73
2023/04/06 08:53:07;;;;;;;2.22;1.80;;;;;;;20.05;41.08;97162.97;10320792;28;20053;-73
2023/04/06 08:58:32;;;;;;;2.25;1.70;;;;;;;20.09;41.32;97163.91;10348964;28;20112;-73
2023/04/06 09:03:56;;;;;;;2.10;1.83;;;;;;;20.11;41.26;97170.63;10333917;28;20042;-73
2023/04/06 09:09:16;;;;;;;3.63;1.88;;;;;;;20.11;41.29;97167.91;10348538;28;20042;-73
2023/04/06 09:14:37;;;;;;;2.20;1.60;;;;;;;20.17;41.38;97163.16;10348326;28;20053;-73
2023/04/06 09:19:56;;;;;;;4.45;1.67;;;;;;;20.21;41.25;97157.88;10333439;28;20049;-73
2023/04/06 09:25:22;;;;;;;2.50;1.73;;;;;;;20.24;41.21;97154.53;10319474;28;20050;-72
2023/04/06 09:30:49;;;;;;;2.15;1.60;;;;;;;20.29;41.11;97154.38;10306131;28;20068;-72
2023/04/06 09:36:09;;;;;;;4.28;1.50;;;;;;;20.31;40.97;97154.84;10347409;28;20042;-72
2023/04/06 09:41:30;;;;;;;5.07;1.92;;;;;;;20.34;40.98;97152.28;10332402;28;20038;-73
2023/04/06 09:46:53;;;;;;;2.85;1.52;;;;;;;20.38;41.13;97148.94;10347153;28;20483;-73
2023/04/06 09:52:14;;;;;;;4.18;1.77;;;;;;;20.38;41.24;97136.22;10346915;28;20058;-73
2023/04/06 09:57:52;;;;;;;4.30;3.17;;;;;;;20.07;29.50;97144.50;10332025;28;20042;-73
2023/04/06 10:03:12;;;;;;;;;;;;;;;20.14;36.22;97142.13;10305385;28;20057;-73
2023/04/06 10:08:33;;;;;;;2.55;1.77;;;;;;;20.21;36.33;97145.16;10346175;28;19921;-73
2023/04/06 10:13:52;;;;;;;2.28;1.88;;;;;;;20.26;36.70;97127.97;10346449;28;20054;-73
2023/04/06 10:19:18;;;;;;;2.33;1.90;;;;;;;20.27;36.87;97133.06;10332302;28;20101;-73
2023/04/06 10:24:38;;;;;;;2.20;1.90;;;;;;;20.30;37.40;97135.09;10331665;28;20049;-73
2023/04/06 10:30:05;;;;;;;3.28;1.80;;;;;;;20.30;37.74;97131.63;10320220;28;20065;-73
2023/04/06 10:35:36;;;;;;;3.00;1.67;;;;;;;20.30;38.16;97128.91;10331453;28;20046;-73
2023/04/06 10:41:03;;;;;;;2.90;1.65;;;;;;;20.31;38.59;97119.69;10330813;28;20499;-73
2023/04/06 10:46:28;;;;;;;2.75;1.65;;;;;;;20.32;39.04;97111.22;10345861;28;20537;-73
2023/04/06 10:51:53;;;;;;;1.83;1.65;;;;;;;20.33;39.27;97109.34;10331233;28;20396;-73
2023/04/06 10:57:12;;;;;;;3.78;1.60;;;;;;;20.34;39.56;97106.28;10317389;28;20053;-73
2023/04/06 11:02:32;;;;;;;1.98;1.48;;;;;;;20.33;39.77;97091.19;10330838;28;20046;-73
2023/04/06 11:07:51;;;;;;;2.35;1.50;;;;;;;20.34;39.87;97097.38;10345507;28;20045;-73
2023/04/06 11:13:11;;;;;;;4.43;2.80;;;;;;;20.25;31.53;97100.13;10345243;28;20070;-73
2023/04/06 11:18:31;;;;;;;2.45;1.80;;;;;;;20.20;36.78;97096.78;10319951;28;20038;-73
2023/04/06 11:23:51;;;;;;;2.80;2.33;;;;;;;20.17;30.58;97092.81;10378385;28;20038;-73
2023/04/06 11:29:11;;;;;;;2.75;2.40;;;;;;;20.11;30.82;97089.47;10368699;28;20053;-74
2023/04/06 11:34:39;;;;;;;2.38;1.90;;;;;;;20.20;34.50;97081.34;10364417;28;20038;-74
2023/04/06 11:39:59;;;;;;;4.35;1.73;;;;;;;20.26;36.10;97081.97;10357344;28;20053;-74
2023/04/06 11:45:18;;;;;;;2.60;1.70;;;;;;;20.28;36.90;97069.69;10337107;28;20042;-73
2023/04/06 11:50:38;;;;;;;4.88;1.88;;;;;;;20.27;37.57;97065.41;10323501;28;20053;-73
2023/04/06 11:55:57;;;;;;;4.75;1.63;;;;;;;20.28;38.31;97061.59;10347106;28;20046;-73
2023/04/06 12:01:17;;;;;;;2.92;1.90;;;;;;;20.29;38.92;97073.22;10375490;28;20463;-74
2023/04/06 12:06:36;;;;;;;4.45;1.60;;;;;;;20.29;39.00;97071.31;10373997;28;20072;-74
2023/04/06 12:11:56;;;;;;;3.95;1.40;;;;;;;20.28;39.29;97067.00;10349394;28;20457;-74
2023/04/06 12:17:15;;;;;;;1.52;1.33;;;;;;;20.28;39.62;97066.22;10376402;28;20041;-74
2023/04/06 12:22:34;;;;;;;7.25;1.80;;;;;;;20.28;39.84;97049.97;10362231;28;20092;-74
2023/04/06 12:27:54;;;;;;;3.72;1.63;;;;;;;20.27;40.05;97045.69;10376893;28;20402;-73
2023/04/06 12:33:13;;;;;;;8.38;4.80;;;;;;;20.28;42.36;97039.94;10361666;28;20049;-73
2023/04/06 12:38:33;;;;;;;7.32;2.90;;;;;;;20.30;43.08;97037.69;10353632;28;20076;-73
2023/04/06 12:43:52;;;;;;;5.82;2.60;;;;;;;20.31;43.42;97039.31;10354150;28;20050;-73
2023/04/06 12:49:12;;;;;;;3.45;2.15;;;;;;;20.30;43.50;97029.59;10346408;28;20043;-74
2023/04/06 12:54:31;;;;;;;3.42;2.33;;;;;;;20.30;43.51;97029.59;10334693;28;20042;-74
2023/04/06 12:59:52;;;;;;;3.42;2.13;;;;;;;20.28;43.79;97025.63;10351591;28;20375;-74
2023/04/06 13:05:14;;;;;;;3.90;1.90;;;;;;;20.29;43.88;97025.31;10335187;28;20060;-74
2023/04/06 13:10:34;;;;;;;3.33;2.38;;;;;;;20.28;44.31;97012.88;10375235;28;20050;-73
2023/04/06 13:15:58;;;;;;;3.17;1.90;;;;;;;20.29;44.22;97019.13;10351335;28;20438;-73
2023/04/06 13:21:18;;;;;;;2.13;1.60;;;;;;;20.29;43.99;97006.38;10306388;28;20049;-74
2023/04/06 13:26:38;;;;;;;3.33;1.92;;;;;;;20.31;44.17;97008.75;10345206;28;20050;-73
2023/04/06 13:31:57;;;;;;;2.90;1.60;;;;;;;20.30;44.15;97002.53;10333873;28;20445;-75
2023/04/06 13:37:17;;;;;;;4.88;1.83;;;;;;;20.30;44.07;97005.25;10388107;28;20511;-75
2023/04/06 13:42:39;;;;;;;3.35;1.63;;;;;;;20.31;44.06;96998.72;10372505;28;20042;-75
2023/04/06 13:47:59;;;;;;;4.45;1.52;;;;;;;20.30;44.06;96997.13;10388184;28;20042;-75
2023/04/06 13:53:19;;;;;;;2.95;1.63;;;;;;;20.31;43.99;96995.22;10373473;28;20046;-74
2023/04/06 13:58:38;;;;;;;2.65;1.48;;;;;;;20.29;43.84;96986.66;10373348;28;20068;-74
2023/04/06 14:03:57;;;;;;;3.10;2.00;;;;;;;20.29;44.08;96987.44;10372895;28;20487;-75
2023/04/06 14:09:17;;;;;;;2.00;1.40;;;;;;;20.29;44.16;96981.25;10372704;28;20056;-74
2023/04/06 14:14:36;;;;;;;3.90;1.67;;;;;;;20.29;43.84;96986.66;10348265;28;20046;-75
2023/04/06 14:19:56;;;;;;;2.95;1.55;;;;;;;20.30;44.00;96972.00;10318006;28;20046;-75
2023/04/06 14:25:15;;;;;;;2.67;1.35;;;;;;;20.31;43.79;96976.28;10331585;28;20042;-75
2023/04/06 14:30:35;;;;;;;2.47;1.50;;;;;;;20.32;43.45;96983.28;10333084;28;20054;-74
2023/04/06 14:35:54;;;;;;;4.03;1.40;;;;;;;20.31;43.27;96974.38;10331338;28;20066;-74
2023/04/06 14:41:24;;;;;;;2.70;1.50;;;;;;;20.32;43.04;96970.53;10305159;28;20049;-74
2023/04/06 14:46:44;;;;;;;6.97;1.58;;;;;;;20.33;42.81;96968.66;10345907;28;20046;-74
2023/04/06 14:52:04;;;;;;;2.67;1.55;;;;;;;20.34;42.77;96971.00;10318364;28;20049;-74
2023/04/06 14:57:24;;;;;;;3.10;1.42;;;;;;;20.34;42.56;96973.72;10353581;28;20034;-73
2023/04/06 15:02:43;;;;;;;3.05;1.75;;;;;;;20.32;42.41;96961.63;10338905;28;20043;-74
2023/04/06 15:08:03;;;;;;;2.20;1.50;;;;;;;20.29;42.59;96959.59;10311477;28;20410;-74
2023/04/06 15:13:23;;;;;;;1.63;1.33;;;;;;;20.31;42.31;96962.78;10338124;28;20506;-75
2023/04/06 15:18:42;;;;;;;2.47;1.67;;;;;;;20.32;42.00;96964.34;10337953;28;20121;-75
2023/04/06 15:24:03;;;;;;;1.95;1.33;;;;;;;20.33;41.86;96955.91;10324574;28;20406;-74
2023/04/06 15:29:23;;;;;;;2.15;1.50;;;;;;;20.36;41.63;96959.88;10342613;28;20069;-74
2023/04/06 15:34:42;;;;;;;2.40;1.40;;;;;;;20.37;41.31;96952.56;10339907;28;20046;-74
2023/04/06 15:40:03;;;;;;;1.60;1.30;;;;;;;20.37;41.20;96947.16;10339850;28;20486;-74
2023/04/06 15:45:23;;;;;;;1.38;1.00;;;;;;;20.32;40.69;96954.31;10355331;28;20042;-74
2023/04/06 15:50:42;;;;;;;1.40;1.30;;;;;;;20.31;40.54;96955.44;10377515;28;20057;-74
2023/04/06 15:56:03;;;;;;;6.68;3.60;;;;;;;20.08;27.49;96954.88;10363489;28;20407;-74
2023/04/06 16:01:23;;;;;;;8.77;3.28;;;;;;;19.73;24.22;96949.56;10391860;28;20446;-73
2023/04/06 16:06:43;;;;;;;5.60;3.58;;;;;;;19.48;22.52;96943.09;10366626;28;20050;-75
2023/04/06 16:12:02;;;;;;;6.18;3.20;;;;;;;19.50;25.50;96940.03;10377582;28;20053;-72
2023/04/06 16:17:22;;;;;;;4.13;2.67;;;;;;;19.64;29.30;96946.06;10375914;28;20096;-74
2023/04/06 16:22:41;;;;;;;4.07;2.03;;;;;;;19.77;29.93;96948.94;10343301;28;20049;-74
2023/04/06 16:28:01;;;;;;;3.17;2.38;;;;;;;19.86;31.35;96952.41;10336472;28;20065;-73
2023/04/06 16:33:22;;;;;;;2.75;2.10;;;;;;;19.87;32.41;96949.38;10321883;28;20071;-74
2023/04/06 16:38:41;;;;;;;2.75;2.03;;;;;;;19.89;33.13;96947.13;10365525;28;20042;-74
2023/04/06 16:44:01;;;;;;;5.40;1.92;;;;;;;19.91;34.00;96954.94;10364987;28;20475;-74
2023/04/06 16:49:20;;;;;;;1.92;1.67;;;;;;;19.89;34.34;96957.94;10324172;28;20064;-73
2023/04/06 16:54:40;;;;;;;6.15;2.08;;;;;;;19.90;34.91;96954.16;10325765;28;20060;-73
2023/04/06 17:00:00;;;;;;;3.65;1.63;;;;;;;19.92;35.25;96949.22;10334464;28;20045;-73
2023/04/06 17:05:23;;;;;;;2.42;1.75;;;;;;;19.90;35.75;96948.75;10334269;28;20506;-73
2023/04/06 17:10:43;;;;;;;5.05;1.80;;;;;;;19.89;36.65;96941.72;10334391;28;20050;-73
2023/04/06 17:16:02;;;;;;;2.47;1.65;;;;;;;19.89;37.20;96952.53;10321491;28;20483;-73
2023/04/06 17:21:22;;;;;;;7.03;1.80;;;;;;;19.89;37.75;96946.34;10337081;28;20505;-73
2023/04/06 17:26:41;;;;;;;4.10;1.63;;;;;;;19.87;38.15;96954.78;10316499;28;20034;-73
2023/04/06 17:32:01;;;;;;;1.98;1.60;;;;;;;19.88;38.55;96950.19;10321863;28;20050;-72
2023/04/06 17:37:20;;;;;;;3.03;1.35;;;;;;;19.89;39.29;96951.75;10320077;28;20042;-74
2023/04/06 17:42:40;;;;;;;2.78;1.25;;;;;;;19.87;39.54;96960.19;10332650;28;20038;-74
2023/04/06 17:48:00;;;;;;;2.90;1.52;;;;;;;19.87;39.97;96954.00;10305511;28;20407;-73
2023/04/06 17:53:20;;;;;;;2.78;1.40;;;;;;;19.86;40.32;96958.63;10318636;28;20050;-74
2023/04/06 17:58:40;;;;;;;3.72;1.88;;;;;;;19.86;40.75;96964.03;10318649;28;20104;-73
2023/04/06 18:03:59;;;;;;;1.70;1.60;;;;;;;19.87;41.28;96971.00;10332192;28;20042;-73
2023/04/06 18:09:19;;;;;;;5.30;1.67;;;;;;;19.89;41.80;96970.69;10346644;28;20487;-74
2023/04/06 18:14:40;;;;;;;6.35;1.75;;;;;;;19.87;42.61;96976.41;10332014;28;20050;-74
2023/04/06 18:19:59;;;;;;;3.80;1.70;;;;;;;19.85;42.89;96975.16;10318250;28;20046;-74
2023/04/06 18:25:19;;;;;;;2.88;1.90;;;;;;;19.85;43.29;96975.16;10331998;28;20065;-74
2023/04/06 18:30:39;;;;;;;4.25;1.60;;;;;;;19.82;43.87;96970.41;10325828;28;20088;-74
2023/04/06 18:35:59;;;;;;;4.70;1.85;;;;;;;19.81;44.32;96977.69;10340398;28;20498;-74
2023/04/06 18:41:21;;;;;;;3.72;1.85;;;;;;;19.81;44.43;96983.09;10355069;28;20046;-74
2023/04/06 18:46:43;;;;;;;4.82;1.73;;;;;;;19.81;45.05;96982.31;10355403;28;20046;-73
2023/04/06 18:52:06;;;;;;;4.13;1.90;;;;;;;19.82;45.11;96986.63;10354607;28;20056;-72
2023/04/06 18:57:26;;;;;;;7.20;2.15;;;;;;;19.80;45.50;96986.13;10340560;28;20403;-74
2023/04/06 19:02:45;;;;;;;4.22;1.60;;;;;;;19.78;45.51;96988.34;10354498;28;20038;-73
2023/04/06 19:08:05;;;;;;;2.95;1.92;;;;;;;19.78;45.87;96991.88;10338784;28;20097;-74
2023/04/06 19:13:26;;;;;;;4.22;1.75;;;;;;;19.77;45.70;96981.38;10325507;28;20061;-74
2023/04/06 19:18:45;;;;;;;4.65;1.80;;;;;;;19.74;45.66;96990.94;10338767;28;20097;-73
2023/04/06 19:24:05;;;;;;;3.38;1.90;;;;;;;19.75;46.35;96992.50;10353050;28;20042;-75
2023/04/06 19:29:25;;;;;;;5.25;2.10;;;;;;;19.74;45.78;96994.41;10328181;28;20491;-75
2023/04/06 19:34:45;;;;;;;4.07;1.85;;;;;;;19.74;46.39;96989.00;10371456;28;20041;-74
2023/04/06 19:40:09;;;;;;;5.22;1.98;;;;;;;19.74;46.12;96997.13;10391553;28;20402;-75
2023/04/06 19:45:29;;;;;;;3.20;1.83;;;;;;;19.72;46.48;96985.84;10379414;28;20556;-75
2023/04/06 19:50:52;;;;;;;3.10;1.83;;;;;;;19.73;46.63;96990.09;10378172;28;20050;-76
2023/04/06 19:56:11;;;;;;;4.40;1.98;;;;;;;19.72;46.80;96985.06;10377792;28;20060;-75
2023/04/06 20:01:31;;;;;;;5.68;2.20;;;;;;;19.72;46.77;96979.66;10363772;28;20042;-75
2023/04/06 20:06:52;;;;;;;3.72;1.92;;;;;;;19.71;47.08;96983.41;10363633;28;20042;-74
2023/04/06 20:12:11;;;;;;;3.05;1.95;;;;;;;19.70;47.25;96981.84;10377067;28;20061;-75
2023/04/06 20:17:31;;;;;;;3.53;1.98;;;;;;;19.69;47.27;96986.44;10376745;28;20038;-75
2023/04/06 20:22:51;;;;;;;3.35;2.03;;;;;;;19.68;46.89;96989.44;10376499;28;20096;-74
2023/04/06 20:28:11;;;;;;;4.70;2.10;;;;;;;19.65;47.47;96995.50;10356172;28;20565;-74
2023/04/06 20:33:30;;;;;;;2.65;1.77;;;;;;;19.63;47.32;96990.41;10363070;28;20053;-74
2023/04/06 20:38:50;;;;;;;3.35;2.13;;;;;;;19.63;47.39;96992.34;10390657;28;20042;-74
2023/04/06 20:44:09;;;;;;;2.83;1.75;;;;;;;19.63;48.24;96987.72;10375618;28;20042;-74
2023/04/06 20:49:29;;;;;;;3.20;1.90;;;;;;;19.62;48.35;96980.75;10371504;28;20057;-75
2023/04/06 20:54:49;;;;;;;4.60;2.10;;;;;;;19.62;48.20;96985.31;10340026;28;20096;-74
2023/04/06 21:00:11;;;;;;;4.85;2.25;;;;;;;19.61;48.33;96981.06;10337255;28;20050;-75
2023/04/06 21:05:31;;;;;;;2.85;2.35;;;;;;;19.60;48.14;96974.88;10333407;28;20388;-75
2023/04/06 21:10:51;;;;;;;3.47;2.20;;;;;;;19.60;48.14;96987.56;10375053;28;20053;-75
2023/04/06 21:16:10;;;;;;;3.65;2.20;;;;;;;19.60;48.30;96982.16;10374653;28;20403;-74
2023/04/06 21:21:32;;;;;;;5.28;2.22;;;;;;;19.60;48.15;96982.16;10388752;28;20486;-75
2023/04/06 21:26:52;;;;;;;2.40;1.83;;;;;;;19.59;48.33;96981.38;10376230;28;20498;-73
2023/04/06 21:32:12;;;;;;;4.68;1.90;;;;;;;19.56;47.96;96980.09;10374280;28;20046;-74
2023/04/06 21:37:32;;;;;;;2.28;1.95;;;;;;;19.56;47.64;96969.28;10360164;28;20053;-74
2023/04/06 21:42:51;;;;;;;3.75;1.90;;;;;;;19.56;47.90;96973.88;10369268;28;20054;-73
2023/04/06 21:48:10;;;;;;;4.38;1.98;;;;;;;19.54;47.88;96968.81;10319200;28;20042;-73
2023/04/06 21:53:30;;;;;;;2.25;1.75;;;;;;;19.54;47.80;96976.94;10319207;28;20050;-73
2023/04/06 21:58:50;;;;;;;3.17;1.80;;;;;;;19.52;47.71;96965.66;10347659;28;20109;-73
2023/04/06 22:04:10;;;;;;;4.07;2.20;;;;;;;19.52;47.77;96967.53;10331905;28;20046;-73
2023/04/06 22:09:30;;;;;;;3.05;1.98;;;;;;;19.51;47.83;96964.03;10332382;28;20042;-73
2023/04/06 22:14:50;;;;;;;2.95;2.17;;;;;;;19.50;47.65;96959.78;10332474;28;20104;-73
2023/04/06 22:20:10;;;;;;;2.55;2.00;;;;;;;19.49;47.66;96965.50;10318805;28;20045;-73
2023/04/06 22:25:30;;;;;;;4.20;2.08;;;;;;;19.49;47.39;96957.38;10332389;28;20046;-73
2023/04/06 22:30:50;;;;;;;4.78;2.05;;;;;;;19.47;47.43;96956.91;10305121;28;20050;-73
2023/04/06 22:36:10;;;;;;;3.20;2.00;;;;;;;19.45;47.11;96951.81;10331919;28;20096;-72
2023/04/06 22:41:29;;;;;;;6.93;2.00;;;;;;;19.45;46.97;96953.72;10326346;28;20422;-74
2023/04/06 22:46:49;;;;;;;3.92;1.95;;;;;;;19.43;47.19;96954.03;10372303;28;20049;-75
2023/04/06 22:52:08;;;;;;;2.53;1.90;;;;;;;19.42;47.20;96948.97;10372013;28;20052;-75
2023/04/06 22:57:28;;;;;;;3.60;1.98;;;;;;;19.41;46.95;96952.78;10358353;28;20042;-75
2023/04/06 23:02:47;;;;;;;2.70;1.50;;;;;;;19.40;46.97;96940.38;10371877;28;20038;-75
2023/04/06 23:08:07;;;;;;;2.88;1.90;;;;;;;19.39;47.00;96944.22;10358127;28;20042;-75
2023/04/06 23:13:26;;;;;;;2.20;1.80;;;;;;;19.38;46.92;96948.78;10359074;28;20053;-75
2023/04/06 23:18:45;;;;;;;2.70;1.88;;;;;;;19.36;47.11;96945.63;10365784;28;20049;-74
2023/04/06 23:24:05;;;;;;;2.55;1.60;;;;;;;19.36;47.18;96941.00;10393715;28;20038;-74
2023/04/06 23:29:25;;;;;;;1.95;1.63;;;;;;;19.35;47.08;96942.13;10368649;28;20561;-74
2023/04/06 23:34:45;;;;;;;2.45;1.60;;;;;;;19.34;47.08;96937.81;10365089;28;20509;-73
2023/04/06 23:40:05;;;;;;;2.58;1.80;;;;;;;19.33;46.62;96932.78;10364585;28;20068;-74
2023/04/06 23:45:25;;;;;;;4.68;1.95;;;;;;;19.32;46.73;96928.47;10352774;28;20043;-73
2023/04/06 23:50:45;;;;;;;2.17;1.70;;;;;;;19.34;47.01;96926.22;10337238;28;20046;-74
2023/04/06 23:56:06;;;;;;;2.80;1.70;;;;;;;19.33;46.98;96921.97;10337315;28;20042;-74
